Time;durP1;ratioP1;P1;durP2;ratioP2;P2;SDS_P1;SDS_P2;PMS_P1;PMS_P2;Temp;Humidity;BMP_temperature;BMP_pressure;BME280_temperature;BME280_humidity;BME280_pressure;Samples;Min_cycle;Max_cycle;Signal;HPM_P1;HPM_P2
2022/03/24 00:02:02;;;;;;;2.53;2.03;;;;;;;7.64;31.65;100852.12;4401424;32;32519;-83
2022/03/24 00:04:30;;;;;;;3.92;3.53;;;;;;;7.65;31.87;100844.06;4401489;32;33831;-81
2022/03/24 00:06:57;;;;;;;4.28;2.78;;;;;;;7.70;31.65;100849.06;4413720;32;35902;-81
2022/03/24 00:09:25;;;;;;;4.53;3.20;;;;;;;7.67;31.47;100842.19;4414941;32;33703;-82
2022/03/24 00:11:55;;;;;;;8.20;5.10;;;;;;;7.71;31.23;100841.00;4414877;32;33126;-82
2022/03/24 00:14:22;;;;;;;5.00;3.67;;;;;;;7.60;31.44;100840.00;4414826;32;34037;-80
2022/03/24 00:16:50;;;;;;;4.53;4.15;;;;;;;7.50;31.90;100838.91;4400608;32;33517;-82
2022/03/24 00:19:19;;;;;;;;;;;;;;;7.51;32.06;100830.88;4388620;32;33132;-82
2022/03/24 00:21:46;;;;;;;9.95;4.57;;;;;;;7.62;31.81;100828.38;4387110;32;32479;-82
2022/03/24 00:24:14;;;;;;;7.03;3.45;;;;;;;7.54;31.84;100817.44;4400524;32;34428;-81
2022/03/24 00:26:42;;;;;;;3.62;2.58;;;;;;;7.45;32.71;100814.56;4407071;32;33352;-82
2022/03/24 02:07:45;;;;;;;;;;;;;;;;;;;;;
2022/03/24 02:14:33;;;;;;;10.93;3.05;;;;;;;6.81;33.84;100724.41;4432192;32;34236;-81
2022/03/24 03:05:28;;;;;;;3.97;3.47;;;;;;;7.14;33.21;100720.44;4408455;32;20116;-81
2022/03/24 03:07:56;;;;;;;;;;;;;;;7.19;33.27;100718.31;4393759;32;34192;-78
2022/03/24 03:10:24;;;;;;;4.37;2.90;;;;;;;7.19;33.05;100720.12;4384933;32;32364;-80
2022/03/24 03:12:52;;;;;;;9.35;4.03;;;;;;;7.13;32.74;100720.50;4413296;32;34519;-80
2022/03/24 03:15:22;;;;;;;;;;;;;;;7.26;33.00;100716.97;4387559;32;34409;-79
2022/03/24 03:17:50;;;;;;;5.22;2.75;;;;;;;7.32;32.65;100713.06;4399259;32;34446;-80
2022/03/24 03:20:18;;;;;;;4.45;2.35;;;;;;;7.08;32.80;100704.09;4396335;32;32682;-80
2022/03/24 03:22:46;;;;;;;3.70;3.25;;;;;;;6.96;33.01;100712.81;4398132;32;34154;-80
2022/03/24 03:25:14;;;;;;;6.35;3.33;;;;;;;7.12;32.55;100703.81;4399932;32;35678;-80
2022/03/24 03:27:42;;;;;;;;;;;;;;;7.20;32.32;100696.22;4385545;32;32629;-80
2022/03/24 03:30:10;;;;;;;;;;;;;;;7.27;32.17;100697.47;4385627;32;32972;-80
2022/03/24 03:32:38;;;;;;;8.23;3.47;;;;;;;7.33;31.82;100699.72;4387312;32;32678;-80
2022/03/24 03:35:06;;;;;;;4.40;3.53;;;;;;;7.52;31.46;100699.34;4387470;32;34562;-79
2022/03/24 03:37:34;;;;;;;4.45;3.87;;;;;;;7.56;31.27;100701.66;4399805;32;34507;-80
2022/03/24 03:40:03;;;;;;;;;;;;;;;7.74;31.05;100697.78;4387616;32;32768;-80
2022/03/24 03:42:32;;;;;;;3.97;2.78;;;;;;;7.80;30.98;100686.78;4405525;32;33852;-79
2022/03/24 03:44:59;;;;;;;;;;;;;;;7.68;31.17;100692.91;4399784;32;35567;-80
2022/03/24 03:47:27;;;;;;;4.55;2.75;;;;;;;7.73;31.03;100684.66;4399366;32;35294;-80
2022/03/24 03:49:56;;;;;;;4.03;3.62;;;;;;;7.68;31.01;100686.75;4399477;32;34342;-79
2022/03/24 03:52:32;;;;;;;7.10;3.97;;;;;;;7.56;31.59;100692.91;4400407;32;33868;-80
2022/03/24 03:54:59;;;;;;;5.35;3.00;;;;;;;7.49;31.70;100696.91;4386954;32;34868;-80
2022/03/24 03:57:27;;;;;;;4.00;3.60;;;;;;;7.61;31.55;100693.41;4386256;32;32816;-79
2022/03/24 03:59:55;;;;;;;;;;;;;;;7.58;31.97;100698.94;4399324;32;33489;-80
2022/03/24 04:02:23;;;;;;;;;;;;;;;7.61;31.69;100688.97;4413663;32;34839;-80
2022/03/24 04:04:52;;;;;;;6.55;4.68;;;;;;;7.66;31.69;100686.03;4399015;32;35668;-80
2022/03/24 04:07:20;;;;;;;9.90;3.85;;;;;;;7.45;31.79;100682.19;4386819;32;33965;-79
2022/03/24 04:09:48;;;;;;;3.37;3.08;;;;;;;7.47;31.83;100682.94;4385901;32;31453;-80
2022/03/24 04:12:16;;;;;;;7.05;3.17;;;;;;;7.49;31.64;100691.59;4399137;32;33803;-80
2022/03/24 04:14:43;;;;;;;;;;;;;;;7.32;32.01;100686.59;4410678;32;35362;-80
2022/03/24 04:17:12;;;;;;;16.62;6.07;;;;;;;7.44;31.74;100688.44;4397561;32;35118;-78
2022/03/24 04:19:40;;;;;;;7.43;3.78;;;;;;;7.50;31.69;100688.00;4385768;32;31889;-80
2022/03/24 04:22:08;;;;;;;6.03;4.87;;;;;;;7.50;31.71;100693.31;4373764;32;33140;-79
2022/03/24 04:24:36;;;;;;;3.95;3.62;;;;;;;7.36;31.91;100690.75;4385920;32;34638;-79
2022/03/24 04:27:05;;;;;;;7.10;4.50;;;;;;;7.51;31.56;100687.91;4397438;32;33332;-78
2022/03/24 04:29:33;;;;;;;6.05;4.07;;;;;;;7.46;31.58;100692.66;4385432;32;34223;-79
2022/03/24 04:32:01;;;;;;;;;;;;;;;7.44;31.58;100686.62;4385840;32;33773;-79
2022/03/24 04:34:29;;;;;;;7.25;4.07;;;;;;;7.46;31.62;100681.22;4397767;32;34868;-79
2022/03/24 04:37:00;;;;;;;4.43;2.35;;;;;;;7.28;32.27;100682.47;4397334;32;34366;-79
2022/03/24 04:39:30;;;;;;;5.35;4.65;;;;;;;7.27;32.31;100676.31;4414223;32;31549;-79
2022/03/24 04:41:58;;;;;;;4.07;3.78;;;;;;;7.51;31.61;100679.09;4388057;32;34016;-79
2022/03/24 04:44:26;;;;;;;;;;;;;;;7.44;31.55;100683.97;4387258;32;34764;-79
2022/03/24 04:46:54;;;;;;;;;;;;;;;7.47;31.59;100678.47;4388279;32;33044;-79
2022/03/24 04:49:22;;;;;;;5.22;3.12;;;;;;;7.26;32.04;100679.09;4400534;32;33435;-79
2022/03/24 04:51:49;;;;;;;4.45;4.05;;;;;;;7.21;32.19;100676.75;4400772;32;35003;-79
2022/03/24 04:54:18;;;;;;;;;;;;;;;7.36;31.91;100678.34;4414745;32;35381;-79
2022/03/24 04:56:45;;;;;;;6.95;3.45;;;;;;;7.46;31.70;100675.94;4400545;32;34790;-78
2022/03/24 04:59:13;;;;;;;5.50;4.25;;;;;;;7.59;31.55;100676.78;4399623;32;34603;-80
2022/03/24 05:01:41;;;;;;;4.25;3.85;;;;;;;7.63;31.48;100676.47;4399472;32;33481;-79
2022/03/24 05:04:10;;;;;;;6.35;4.65;;;;;;;7.51;31.73;100682.62;4398236;32;34212;-79
2022/03/24 05:06:37;;;;;;;5.20;4.70;;;;;;;7.59;31.77;100677.66;4381343;32;33497;-78
2022/03/24 05:09:05;;;;;;;7.53;4.62;;;;;;;7.62;31.77;100673.94;4398500;32;33667;-79
2022/03/24 05:11:33;;;;;;;14.48;5.12;;;;;;;7.59;31.69;100674.16;4397814;32;33693;-78
2022/03/24 05:14:04;;;;;;;6.30;4.95;;;;;;;7.82;31.22;100679.56;4413036;32;35027;-78
2022/03/24 05:16:32;;;;;;;5.50;4.97;;;;;;;7.77;31.29;100676.41;4399641;32;33181;-79
2022/03/24 05:19:02;;;;;;;4.12;3.72;;;;;;;7.88;31.30;100676.50;4411328;32;33872;-78
2022/03/24 05:21:32;;;;;;;7.37;4.35;;;;;;;7.80;31.43;100678.81;4404285;32;34333;-79
2022/03/24 05:24:00;;;;;;;4.60;3.83;;;;;;;7.86;31.35;100682.84;4401378;32;35552;-79
2022/03/24 05:26:28;;;;;;;6.93;4.37;;;;;;;7.66;31.69;100678.06;4388856;32;33638;-79
2022/03/24 05:28:56;;;;;;;11.93;5.57;;;;;;;7.92;31.27;100685.09;4400346;32;31636;-79
2022/03/24 05:31:25;;;;;;;4.65;3.03;;;;;;;8.05;31.12;100678.84;4403204;32;34002;-79
2022/03/24 05:33:53;;;;;;;7.55;5.40;;;;;;;8.11;30.90;100675.72;4403580;32;35016;-79
2022/03/24 05:36:21;;;;;;;4.35;3.97;;;;;;;8.22;30.95;100682.97;4412635;32;33494;-80
2022/03/24 05:38:51;;;;;;;6.20;4.68;;;;;;;8.23;30.80;100680.22;4390777;32;32216;-79
2022/03/24 05:41:19;;;;;;;9.35;6.72;;;;;;;8.32;30.63;100684.03;4401238;32;33864;-80
2022/03/24 05:44:02;;;;;;;7.35;4.85;;;;;;;8.37;30.53;100680.09;4400794;32;35173;-82
2022/03/24 05:46:42;;;;;;;13.35;6.03;;;;;;;8.44;30.49;100674.22;4413268;32;34257;-81
2022/03/24 05:49:15;;;;;;;5.43;4.95;;;;;;;8.60;30.36;100671.34;4414078;32;33118;-80
2022/03/24 05:51:44;;;;;;;7.82;5.20;;;;;;;8.66;30.30;100673.53;4414219;32;33590;-80
2022/03/24 05:54:14;;;;;;;4.68;4.28;;;;;;;8.86;30.02;100673.78;4421933;32;33351;-80
2022/03/24 05:56:42;;;;;;;9.25;5.28;;;;;;;8.80;30.07;100676.03;4401177;32;33054;-80
2022/03/24 05:59:10;;;;;;;6.28;5.78;;;;;;;8.92;30.47;100672.47;4413291;32;34000;-80
2022/03/24 06:01:39;;;;;;;6.95;4.60;;;;;;;9.06;30.04;100672.28;4406060;32;34323;-81
2022/03/24 06:04:08;;;;;;;5.45;4.05;;;;;;;9.16;29.91;100674.16;4401751;32;33650;-79
2022/03/24 06:06:37;;;;;;;5.60;4.68;;;;;;;9.08;30.00;100667.75;4400390;32;34003;-81
2022/03/24 06:09:06;;;;;;;6.25;4.60;;;;;;;9.41;29.50;100670.50;4412030;32;33452;-78
2022/03/24 06:11:35;;;;;;;7.00;5.40;;;;;;;9.66;29.18;100667.69;4415064;32;32254;-78
2022/03/24 06:14:04;;;;;;;7.43;5.12;;;;;;;9.92;29.01;100670.03;4412258;32;34756;-79
2022/03/24 06:16:32;;;;;;;5.95;5.47;;;;;;;9.97;29.64;100667.00;4405145;32;32260;-78
2022/03/24 06:19:00;;;;;;;7.53;6.00;;;;;;;9.95;29.47;100669.81;4400383;32;32941;-78
2022/03/24 06:21:28;;;;;;;5.47;4.62;;;;;;;10.02;29.11;100662.19;4414826;32;31967;-79
2022/03/24 06:23:56;;;;;;;15.05;5.25;;;;;;;10.18;28.55;100660.91;4409719;32;35159;-79
2022/03/24 06:26:24;;;;;;;6.22;5.43;;;;;;;10.52;28.17;100659.06;4402502;32;34336;-78
2022/03/24 06:28:54;;;;;;;5.28;4.75;;;;;;;10.68;28.03;100663.00;4402280;32;33356;-78
2022/03/24 06:31:23;;;;;;;10.27;6.82;;;;;;;10.73;28.10;100659.97;4411831;32;32447;-79
2022/03/24 06:33:50;;;;;;;5.18;4.78;;;;;;;10.94;28.16;100663.59;4413331;32;36386;-79
2022/03/24 06:36:19;;;;;;;;;;;;;;;11.38;27.87;100664.25;4395309;32;34647;-78
2022/03/24 06:38:46;;;;;;;6.22;4.57;;;;;;;11.52;28.15;100656.78;4404250;32;31358;-79
2022/03/24 06:41:14;;;;;;;6.00;5.37;;;;;;;11.71;27.55;100661.44;4412284;32;32309;-79
2022/03/24 06:43:42;;;;;;;7.57;6.00;;;;;;;11.82;27.28;100653.38;4414562;32;35748;-78
2022/03/24 06:46:10;;;;;;;5.93;4.28;;;;;;;11.97;27.20;100657.37;4392112;32;34389;-78
2022/03/24 06:48:38;;;;;;;8.80;5.18;;;;;;;11.99;27.01;100653.59;4418804;32;33339;-80
2022/03/24 06:51:06;;;;;;;5.28;4.22;;;;;;;12.46;26.19;100650.28;4400608;32;33821;-80
2022/03/24 06:53:34;;;;;;;6.53;5.62;;;;;;;12.38;26.42;100654.63;4400483;32;35178;-78
2022/03/24 06:56:01;;;;;;;;;;;;;;;12.66;25.94;100643.19;4413108;32;35393;-78
2022/03/24 06:58:29;;;;;;;5.93;5.18;;;;;;;13.15;24.93;100652.03;4402037;32;33986;-79
2022/03/24 07:00:57;;;;;;;5.32;4.20;;;;;;;13.46;24.91;100650.87;4399416;32;34240;-78
2022/03/24 07:03:26;;;;;;;4.10;3.72;;;;;;;13.67;25.17;100648.06;4399808;32;35702;-79
2022/03/24 07:05:53;;;;;;;13.05;3.90;;;;;;;13.88;23.35;100648.72;4399618;32;34354;-79
2022/03/24 07:08:25;;;;;;;7.12;5.85;;;;;;;14.14;23.23;100649.75;4400158;32;31548;-79
2022/03/24 07:10:54;;;;;;;3.67;3.37;;;;;;;14.24;21.49;100647.94;4403539;32;34574;-78
2022/03/24 07:13:21;;;;;;;;;;;;;;;14.43;21.14;100647.84;4402095;32;35038;-77
2022/03/24 07:15:49;;;;;;;5.28;4.72;;;;;;;14.65;20.69;100643.75;4403483;32;35825;-78
2022/03/24 07:18:17;;;;;;;;;;;;;;;14.44;21.76;100636.97;4400125;32;32533;-78
2022/03/24 07:20:45;;;;;;;6.78;4.85;;;;;;;14.80;21.01;100636.91;4415330;32;34258;-77
2022/03/24 07:23:14;;;;;;;5.65;5.07;;;;;;;15.04;21.02;100636.34;4410516;32;35394;-79
2022/03/24 07:25:43;;;;;;;5.15;4.07;;;;;;;15.15;20.34;100641.47;4398916;32;35758;-77
2022/03/24 07:28:11;;;;;;;7.00;5.05;;;;;;;14.97;20.88;100629.87;4413157;32;33308;-80
2022/03/24 07:30:39;;;;;;;6.78;6.07;;;;;;;15.25;20.57;100634.19;4407785;32;34276;-79
2022/03/24 07:33:11;;;;;;;3.72;3.53;;;;;;;15.48;20.70;100625.53;4399745;32;33447;-79
2022/03/24 07:35:39;;;;;;;4.60;3.62;;;;;;;15.50;20.11;100628.91;4402257;32;33631;-79
2022/03/24 07:38:07;;;;;;;6.55;5.32;;;;;;;15.21;20.36;100625.59;4425490;32;34205;-78
2022/03/24 07:40:36;;;;;;;4.32;4.03;;;;;;;15.22;20.48;100619.25;4410000;32;33275;-78
2022/03/24 07:43:05;;;;;;;7.70;6.40;;;;;;;15.64;20.38;100623.00;4411285;32;35038;-78
2022/03/24 07:45:38;;;;;;;4.80;4.35;;;;;;;15.73;20.10;100623.87;4415406;32;33880;-78
2022/03/24 07:48:15;;;;;;;5.62;5.03;;;;;;;16.02;19.96;100627.94;4399054;32;33590;-78
2022/03/24 07:50:48;;;;;;;3.17;2.92;;;;;;;15.98;19.36;100623.03;4419937;32;33815;-79
2022/03/24 07:53:16;;;;;;;10.88;6.12;;;;;;;15.87;19.56;100628.69;4411771;32;35031;-79
2022/03/24 07:55:46;;;;;;;5.53;5.03;;;;;;;15.89;19.45;100624.84;4421111;32;35200;-79
2022/03/24 07:58:16;;;;;;;5.55;4.65;;;;;;;16.01;19.58;100623.56;4413777;32;33372;-77
2022/03/24 08:00:45;;;;;;;5.05;4.60;;;;;;;16.15;19.32;100622.16;4393851;32;34019;-79
2022/03/24 08:03:20;;;;;;;4.70;4.30;;;;;;;16.05;19.96;100622.25;4421847;32;35089;-78
2022/03/24 08:05:49;;;;;;;7.43;5.43;;;;;;;16.35;19.56;100626.28;4419282;32;34049;-78
2022/03/24 08:08:18;;;;;;;9.07;4.97;;;;;;;16.37;19.72;100619.78;4412357;32;34244;-77
2022/03/24 08:10:47;;;;;;;7.40;6.78;;;;;;;16.52;20.22;100614.62;4387299;32;32854;-77
2022/03/24 08:13:16;;;;;;;5.85;5.05;;;;;;;16.72;19.74;100616.03;4400810;32;35415;-78
2022/03/24 08:15:45;;;;;;;5.65;5.20;;;;;;;16.83;20.38;100611.22;4414733;32;35109;-79
2022/03/24 08:18:15;;;;;;;4.82;4.43;;;;;;;16.99;19.87;100621.97;4401839;32;31764;-78
2022/03/24 08:20:43;;;;;;;5.65;4.60;;;;;;;17.16;19.86;100618.31;4422074;32;34787;-78
2022/03/24 08:23:13;;;;;;;7.18;5.53;;;;;;;17.10;19.79;100605.56;4402373;32;33486;-79
2022/03/24 08:25:44;;;;;;;4.78;4.18;;;;;;;17.27;19.72;100609.91;4413182;32;33737;-80
2022/03/24 08:28:13;;;;;;;6.87;5.95;;;;;;;17.52;18.83;100611.62;4414613;32;33590;-78
2022/03/24 08:30:44;;;;;;;4.62;4.22;;;;;;;17.62;19.38;100610.47;4414797;32;34120;-78
2022/03/24 08:33:13;;;;;;;9.40;6.80;;;;;;;17.44;19.67;100605.44;4421628;32;34611;-79
2022/03/24 08:35:42;;;;;;;7.35;5.35;;;;;;;17.76;18.52;100612.44;4422265;32;33310;-78
2022/03/24 08:38:11;;;;;;;5.68;5.18;;;;;;;17.77;18.64;100599.84;4387981;32;33326;-79
2022/03/24 08:40:39;;;;;;;7.80;6.05;;;;;;;17.97;18.42;100606.53;4401432;32;32704;-79
2022/03/24 08:43:07;;;;;;;5.15;4.57;;;;;;;18.10;19.03;100606.81;4413284;32;35089;-79
2022/03/24 08:45:38;;;;;;;;;;;;;;;18.29;19.39;100610.00;4403652;32;34312;-78
2022/03/24 08:48:07;;;;;;;8.10;5.60;;;;;;;18.32;17.39;100603.44;4393134;32;33202;-78
2022/03/24 08:50:36;;;;;;;4.97;3.62;;;;;;;18.68;17.82;100605.44;4414873;32;33161;-78
2022/03/24 08:53:04;;;;;;;3.47;3.17;;;;;;;18.85;17.18;100608.88;4401442;32;35233;-79
2022/03/24 08:55:32;;;;;;;4.47;4.05;;;;;;;19.11;17.24;100615.66;4419999;32;34436;-79
2022/03/24 08:58:00;;;;;;;3.87;3.58;;;;;;;18.92;16.72;100604.47;4413186;32;31733;-78
2022/03/24 09:00:28;;;;;;;5.12;4.07;;;;;;;19.24;15.65;100601.59;4412223;32;33336;-79
2022/03/24 09:02:56;;;;;;;5.57;4.68;;;;;;;19.07;15.73;100608.09;4412193;32;34270;-78
2022/03/24 09:05:24;;;;;;;;;;;;;;;19.00;15.30;100610.63;4413980;32;34150;-77
2022/03/24 09:07:52;;;;;;;3.72;3.42;;;;;;;19.17;16.49;100606.00;4421700;32;33393;-78
2022/03/24 09:10:20;;;;;;;4.03;3.67;;;;;;;19.62;15.87;100606.84;4412819;32;32656;-78
2022/03/24 09:12:48;;;;;;;2.78;2.55;;;;;;;19.55;16.16;100596.94;4400331;32;34917;-78
2022/03/24 09:15:18;;;;;;;3.62;3.33;;;;;;;19.37;15.44;100602.66;4399642;32;33593;-79
2022/03/24 09:17:48;;;;;;;3.35;3.12;;;;;;;19.51;14.78;100606.41;4401009;32;34080;-79
2022/03/24 09:20:23;;;;;;;5.78;3.50;;;;;;;19.70;14.92;100604.06;4400903;32;34833;-78
2022/03/24 09:22:51;;;;;;;4.82;4.32;;;;;;;19.82;14.88;100605.28;4413701;32;34977;-78
2022/03/24 09:25:19;;;;;;;5.40;4.15;;;;;;;19.97;14.85;100592.66;4398942;32;34142;-79
2022/03/24 09:27:47;;;;;;;8.02;3.55;;;;;;;20.14;14.75;100605.00;4398913;32;32335;-78
2022/03/24 09:30:18;;;;;;;3.55;3.33;;;;;;;20.35;14.44;100596.97;4413459;32;33972;-78
2022/03/24 09:32:47;;;;;;;6.12;3.58;;;;;;;20.12;14.16;100598.94;4419113;32;34775;-79
2022/03/24 09:35:16;;;;;;;5.53;4.37;;;;;;;20.10;14.81;100597.44;4414579;32;33736;-76
2022/03/24 09:37:44;;;;;;;6.18;4.32;;;;;;;20.47;14.86;100600.06;4397935;32;33611;-77
2022/03/24 09:40:31;;;;;;;4.28;3.87;;;;;;;20.31;15.70;100608.34;4400480;32;32221;-79
2022/03/24 09:43:01;;;;;;;4.40;4.00;;;;;;;20.65;15.11;100594.06;4412399;32;35798;-78
2022/03/24 09:45:29;;;;;;;6.40;5.05;;;;;;;20.55;15.47;100602.66;4414461;32;34359;-78
2022/03/24 09:47:57;;;;;;;6.90;4.95;;;;;;;20.36;15.44;100598.66;4391125;32;33106;-79
2022/03/24 09:50:26;;;;;;;12.48;4.93;;;;;;;20.36;15.02;100595.12;4399255;32;33487;-79
2022/03/24 09:52:53;;;;;;;4.80;4.15;;;;;;;20.41;16.13;100601.66;4399718;32;36048;-78
2022/03/24 09:55:21;;;;;;;11.85;4.68;;;;;;;20.49;16.23;100600.69;4414271;32;34792;-79
2022/03/24 09:57:49;;;;;;;17.35;5.57;;;;;;;20.81;15.96;100593.00;4401761;32;33156;-78
2022/03/24 10:00:37;;;;;;;12.15;5.00;;;;;;;21.07;16.99;100612.25;4403874;32;33453;-81
2022/03/24 10:03:09;;;;;;;4.45;3.90;;;;;;;21.00;16.46;100609.50;4414040;32;35478;-79
2022/03/24 10:06:06;;;;;;;4.97;4.53;;;;;;;21.18;16.07;100604.44;4398536;32;33098;-78
2022/03/24 10:08:36;;;;;;;12.50;6.10;;;;;;;21.19;15.36;100600.75;4416357;32;33570;-79
2022/03/24 10:11:07;;;;;;;3.78;3.42;;;;;;;21.46;17.15;100596.41;4406960;32;35076;-79
2022/03/24 10:13:55;;;;;;;18.67;6.35;;;;;;;21.66;16.73;100594.72;4425293;32;34361;-77
2022/03/24 10:16:35;;;;;;;4.25;3.90;;;;;;;21.69;15.07;100592.47;4404987;32;33569;-79
2022/03/24 10:19:15;;;;;;;4.78;3.40;;;;;;;21.80;14.41;100586.50;4411849;32;33466;-77
2022/03/24 10:21:49;;;;;;;10.40;4.68;;;;;;;22.08;14.85;100587.34;4421398;32;33695;-79
2022/03/24 10:24:21;;;;;;;11.02;5.00;;;;;;;21.89;15.15;100585.34;4421646;32;35002;-80
2022/03/24 10:27:03;;;;;;;8.25;5.12;;;;;;;;;;4399057;32;32870;-79
2022/03/24 10:29:32;;;;;;;3.92;3.53;;;;;;;22.30;14.78;100580.78;4413085;32;33285;-79
2022/03/24 10:32:04;;;;;;;7.00;3.50;;;;;;;22.18;13.89;100579.69;4401674;32;34722;-79
2022/03/24 10:34:35;;;;;;;3.65;3.35;;;;;;;22.53;14.63;100575.94;4409712;32;34307;-79
2022/03/24 10:37:04;;;;;;;8.30;4.78;;;;;;;22.30;14.04;100577.25;4401229;32;33101;-79
2022/03/24 10:39:33;;;;;;;4.03;3.22;;;;;;;22.67;14.17;100576.84;4403270;32;32711;-79
2022/03/24 10:42:12;;;;;;;9.05;3.97;;;;;;;22.73;13.49;100566.00;4398889;32;33445;-79
2022/03/24 10:45:09;;;;;;;6.35;3.22;;;;;;;23.05;13.34;100575.28;4401740;32;34880;-79
2022/03/24 10:48:07;;;;;;;5.28;4.78;;;;;;;22.93;13.34;100574.22;4426411;32;35056;-79
2022/03/24 10:50:40;;;;;;;3.35;2.95;;;;;;;23.03;13.70;100572.75;4389233;32;33330;-79
2022/03/24 10:53:19;;;;;;;3.45;3.12;;;;;;;23.05;13.09;100573.41;4422727;32;34162;-80
2022/03/24 10:56:00;;;;;;;9.00;4.25;;;;;;;22.78;13.42;100563.53;4421441;32;34557;-79
2022/03/24 10:58:33;;;;;;;6.25;3.35;;;;;;;22.42;13.04;100578.38;4408926;32;34508;-80
2022/03/24 11:01:03;;;;;;;5.37;4.87;;;;;;;22.60;13.26;100570.53;4401265;32;34130;-79
2022/03/24 11:03:33;;;;;;;3.83;3.22;;;;;;;22.49;14.44;100569.25;4401036;32;33397;-78
2022/03/24 11:06:12;;;;;;;5.65;3.90;;;;;;;22.96;13.29;100573.78;4414549;32;34582;-80
2022/03/24 11:08:42;;;;;;;3.75;3.45;;;;;;;23.09;12.74;100562.94;4398647;32;33902;-78
2022/03/24 11:11:14;;;;;;;2.75;2.55;;;;;;;23.03;13.48;100567.31;4402342;32;252005;-78
2022/03/24 11:13:51;;;;;;;4.40;3.65;;;;;;;23.13;14.09;100548.75;4408993;32;33516;-78
2022/03/24 11:16:25;;;;;;;6.53;3.72;;;;;;;23.35;13.53;100555.72;4418891;32;35723;-78
2022/03/24 11:18:56;;;;;;;4.68;4.18;;;;;;;23.64;13.20;100552.59;4419349;32;35686;-78
2022/03/24 11:21:39;;;;;;;4.20;3.80;;;;;;;23.79;13.91;100543.16;4411722;32;31914;-79
2022/03/24 11:24:07;;;;;;;21.33;5.60;;;;;;;23.88;12.98;100544.66;4411401;32;32008;-78
2022/03/24 11:26:35;;;;;;;5.22;3.50;;;;;;;24.06;13.17;100543.97;4411014;32;34860;-78
2022/03/24 11:29:05;;;;;;;3.42;3.12;;;;;;;23.55;13.19;100542.97;4410438;32;34460;-78
2022/03/24 11:31:33;;;;;;;4.50;4.20;;;;;;;24.04;14.66;100548.78;4405987;32;33514;-78
2022/03/24 11:34:04;;;;;;;5.43;3.92;;;;;;;24.05;13.24;100540.44;4411815;32;34638;-78
2022/03/24 11:36:33;;;;;;;4.20;3.80;;;;;;;24.37;12.63;100525.06;4410958;32;34987;-79
2022/03/24 11:39:05;;;;;;;5.10;3.65;;;;;;;24.66;13.20;100522.66;4395962;32;34418;-78
2022/03/24 11:41:44;;;;;;;4.68;2.95;;;;;;;24.06;12.09;100523.06;4411225;32;32762;-77
2022/03/24 11:44:16;;;;;;;4.65;4.22;;;;;;;24.46;13.40;100513.72;4411150;32;33212;-78
2022/03/24 11:46:54;;;;;;;11.40;5.18;;;;;;;24.27;12.32;100511.09;4396458;32;34188;-77
2022/03/24 11:49:23;;;;;;;3.58;3.25;;;;;;;24.26;12.26;100506.72;4417737;32;34599;-77
2022/03/24 11:52:11;;;;;;;5.87;4.22;;;;;;;24.58;11.98;100514.75;4409476;32;34254;-79
2022/03/24 11:54:41;;;;;;;6.55;3.92;;;;;;;24.50;13.21;100505.97;4419245;32;34341;-77
2022/03/24 11:57:31;;;;;;;6.07;3.97;;;;;;;24.67;12.26;100510.69;4420099;32;34176;-75
2022/03/24 12:00:14;;;;;;;4.00;3.33;;;;;;;24.64;13.05;100503.00;4418643;32;34357;-76
2022/03/24 12:02:51;;;;;;;4.05;3.65;;;;;;;24.48;11.79;100506.16;4420033;32;33471;-80
2022/03/24 12:05:19;;;;;;;4.57;3.60;;;;;;;24.33;12.06;100497.47;4397701;32;32612;-78
2022/03/24 12:07:47;;;;;;;3.70;3.22;;;;;;;24.81;11.84;100501.44;4417993;32;34479;-78
2022/03/24 12:10:29;;;;;;;3.65;3.03;;;;;;;25.41;12.17;100491.78;4392816;32;34866;-78
2022/03/24 12:13:16;;;;;;;3.87;3.22;;;;;;;26.29;10.23;100494.87;4412777;32;31919;-77
2022/03/24 12:15:44;;;;;;;7.43;3.22;;;;;;;27.02;10.50;100486.28;4412802;32;32310;-78
2022/03/24 12:18:15;;;;;;;2.08;1.95;;;;;;;28.23;9.81;100471.72;4411251;32;35899;-77
2022/03/24 12:20:45;;;;;;;2.58;2.30;;;;;;;29.01;8.52;100472.78;4409999;32;34589;-77
2022/03/24 12:23:13;;;;;;;4.45;2.35;;;;;;;29.19;8.37;100480.78;4410307;32;33446;-77
2022/03/24 12:25:41;;;;;;;1.98;1.87;;;;;;;28.60;8.58;100462.09;4409156;32;32188;-79
2022/03/24 12:28:13;;;;;;;2.15;1.45;;;;;;;29.03;8.06;100476.09;4397394;32;33917;-77
2022/03/24 12:30:45;;;;;;;3.33;3.12;;;;;;;29.44;8.08;100472.94;4385295;32;33036;-77
2022/03/24 12:33:15;;;;;;;1.87;1.77;;;;;;;29.30;7.44;100462.56;4412685;32;33429;-78
2022/03/24 12:35:49;;;;;;;3.40;3.10;;;;;;;29.62;8.49;100453.50;4393324;32;33092;-79
2022/03/24 12:38:20;;;;;;;4.62;3.47;;;;;;;29.80;8.23;100452.41;4413741;32;34979;-77
2022/03/24 12:41:03;;;;;;;3.00;2.47;;;;;;;29.43;7.95;100443.06;4411260;32;34091;-78
2022/03/24 12:43:55;;;;;;;4.00;3.65;;;;;;;29.24;8.58;100450.69;4408191;32;34408;-78
2022/03/24 12:46:35;;;;;;;5.90;2.87;;;;;;;29.26;8.74;100459.50;4413326;32;33690;-78
2022/03/24 12:49:13;;;;;;;4.05;3.65;;;;;;;29.10;8.41;100448.53;4399688;32;33281;-79
2022/03/24 12:52:10;;;;;;;3.47;3.17;;;;;;;28.70;8.66;100443.13;4426396;32;34433;-78
2022/03/24 12:54:42;;;;;;;8.02;3.03;;;;;;;28.76;9.71;100439.41;4406492;32;34131;-77
2022/03/24 12:57:29;;;;;;;4.78;2.62;;;;;;;28.11;10.61;100449.03;4415055;32;35116;-78
2022/03/24 12:59:58;;;;;;;4.30;3.90;;;;;;;27.93;9.52;100440.19;4424740;32;34215;-77
2022/03/24 13:02:27;;;;;;;4.40;4.03;;;;;;;27.57;11.51;100435.78;4428281;32;34075;-78
2022/03/24 13:04:56;;;;;;;3.92;3.15;;;;;;;28.18;9.85;100435.22;4400857;32;33438;-77
2022/03/24 13:07:26;;;;;;;4.70;4.28;;;;;;;28.10;11.02;100432.84;4399640;32;32760;-77
2022/03/24 13:10:08;;;;;;;8.63;3.45;;;;;;;27.94;9.53;100428.97;4399792;32;34176;-77
2022/03/24 13:12:37;;;;;;;4.40;4.00;;;;;;;28.17;10.12;100428.94;4412232;32;32807;-78
2022/03/24 13:15:07;;;;;;;2.22;2.12;;;;;;;28.54;9.03;100430.25;4412659;32;33656;-78
2022/03/24 13:17:36;;;;;;;4.40;4.00;;;;;;;28.55;9.14;100420.13;4413071;32;33465;-78
2022/03/24 13:20:05;;;;;;;2.62;1.83;;;;;;;28.63;9.75;100415.09;4401964;32;34396;-78
2022/03/24 13:22:33;;;;;;;3.87;1.95;;;;;;;28.04;9.18;100420.97;4408717;32;34157;-76
2022/03/24 13:25:07;;;;;;;4.10;2.92;;;;;;;28.07;9.85;100417.78;4413445;32;33361;-78
2022/03/24 13:27:38;;;;;;;6.50;3.55;;;;;;;28.31;10.75;100413.87;4412991;32;33909;-80
2022/03/24 13:30:08;;;;;;;3.58;3.22;;;;;;;27.80;10.29;100410.34;4397394;32;33646;-81
2022/03/24 13:32:42;;;;;;;2.20;2.10;;;;;;;27.64;9.08;100416.50;4413550;32;34522;-78
2022/03/24 13:35:18;;;;;;;5.57;2.62;;;;;;;27.03;9.90;100414.19;4423717;32;34363;-78
2022/03/24 13:37:54;;;;;;;3.35;3.03;;;;;;;27.13;9.53;100410.94;4384301;32;32495;-76
2022/03/24 13:40:25;;;;;;;3.03;2.65;;;;;;;26.93;9.24;100409.56;4401121;32;36022;-77
2022/03/24 13:42:53;;;;;;;3.33;2.80;;;;;;;27.25;10.09;100407.16;4414818;32;35161;-80
2022/03/24 13:45:21;;;;;;;1.80;1.70;;;;;;;27.05;9.23;100408.53;4412523;32;33451;-83
2022/03/24 13:48:14;;;;;;;8.90;3.03;;;;;;;27.32;8.91;100398.81;4418031;32;34171;-80
2022/03/24 13:50:45;;;;;;;1.83;1.73;;;;;;;27.86;8.80;100390.25;4407035;32;35680;-80
2022/03/24 13:53:16;;;;;;;3.80;2.75;;;;;;;27.42;9.07;100396.31;4414064;32;33290;-80
2022/03/24 13:55:46;;;;;;;1.55;1.42;;;;;;;28.05;9.47;100389.00;4399776;32;34214;-81
2022/03/24 13:58:17;;;;;;;3.90;2.08;;;;;;;28.42;8.73;100380.19;4401835;32;33037;-81
2022/03/24 14:00:50;;;;;;;3.67;3.22;;;;;;;28.00;8.62;100381.53;4414635;32;34608;-82
2022/03/24 14:03:23;;;;;;;2.78;2.53;;;;;;;27.96;8.12;100380.31;4399492;32;33969;-81
2022/03/24 14:06:26;;;;;;;3.20;2.58;;;;;;;27.85;9.03;100375.72;4391183;32;31993;-80
2022/03/24 14:09:22;;;;;;;3.73;2.17;;;;;;;28.13;8.67;100378.50;4399404;32;33677;-78
2022/03/24 14:12:02;;;;;;;1.92;1.75;;;;;;;28.10;8.54;100372.66;4407590;32;35671;-82
2022/03/24 14:14:31;;;;;;;4.87;2.45;;;;;;;28.26;8.49;100360.94;4398679;32;35274;-79
2022/03/24 14:16:59;;;;;;;2.65;2.40;;;;;;;28.68;8.00;100367.78;4397654;32;31833;-80
2022/03/24 14:19:27;;;;;;;1.58;1.48;;;;;;;28.26;8.03;100355.47;4406002;32;33395;-79
2022/03/24 14:21:59;;;;;;;1.37;1.27;;;;;;;28.08;8.13;100364.72;4408086;32;34703;-79
2022/03/24 14:24:34;;;;;;;1.90;1.80;;;;;;;28.36;7.76;100356.53;4404873;32;34862;-79